createdAt,value
2022-12-28T00:01:22.642Z,85.83
2022-12-28T00:03:49.644Z,86.35
2022-12-28T00:06:16.834Z,86.79
2022-12-28T00:08:43.677Z,86.84
2022-12-28T00:11:25.480Z,85.99
2022-12-28T00:13:55.843Z,86.35
2022-12-28T00:16:41.752Z,86.59
2022-12-28T00:19:15.177Z,86.05
2022-12-28T00:21:42.626Z,86.05
2022-12-28T00:24:12.404Z,85.88
2022-12-28T00:26:39.516Z,86.89
2022-12-28T00:29:06.580Z,86.38
2022-12-28T00:31:34.060Z,86.76
2022-12-28T00:34:01.375Z,86.60
2022-12-28T00:37:09.268Z,86.01
2022-12-28T00:39:14.920Z,86.61
2022-12-28T00:41:42.420Z,86.38
2022-12-28T00:44:10.457Z,86.75
2022-12-28T00:46:37.170Z,87.30
2022-12-28T00:49:03.892Z,87.29
2022-12-28T00:51:31.368Z,87.62
2022-12-28T00:53:59.632Z,87.54
2022-12-28T00:56:27.164Z,86.91
2022-12-28T00:58:57.892Z,87.49
2022-12-28T01:01:25.991Z,87.38
2022-12-28T01:03:54.796Z,87.80
2022-12-28T01:06:21.524Z,87.66
2022-12-28T01:08:48.618Z,87.80
2022-12-28T01:11:24.639Z,86.89
2022-12-28T01:13:53.328Z,87.65
2022-12-28T01:16:29.320Z,87.43
2022-12-28T01:19:00.509Z,87.36
2022-12-28T01:21:29.930Z,87.84
2022-12-28T01:23:58.274Z,86.15
2022-12-28T01:26:25.742Z,86.75
2022-12-28T01:28:52.477Z,85.78
2022-12-28T01:31:19.889Z,86.79
2022-12-28T01:33:46.706Z,87.34
2022-12-28T01:36:17.900Z,87.55
2022-12-28T01:38:44.993Z,87.58
2022-12-28T01:41:13.598Z,86.47
2022-12-28T01:43:42.556Z,85.60
2022-12-28T01:46:38.785Z,85.99
2022-12-28T01:49:26.334Z,80.57
2022-12-28T01:52:05.179Z,84.89
2022-12-28T01:54:47.034Z,85.91
2022-12-28T01:57:14.193Z,86.22
2022-12-28T01:59:44.223Z,86.35
2022-12-28T02:02:11.709Z,87.26
2022-12-28T02:04:38.680Z,85.31
2022-12-28T02:10:42.683Z,86.37
2022-12-28T02:13:13.250Z,85.07
2022-12-28T02:15:40.035Z,81.10
2022-12-28T02:18:06.774Z,78.68
2022-12-28T02:20:51.922Z,84.70
2022-12-28T02:23:58.968Z,85.51
2022-12-28T02:26:33.107Z,85.33
2022-12-28T02:29:07.698Z,81.40
2022-12-28T02:31:49.625Z,79.97
2022-12-28T02:34:25.684Z,84.22
2022-12-28T02:37:11.956Z,81.21
2022-12-28T02:39:42.095Z,83.75
2022-12-28T02:42:09.098Z,80.25
2022-12-28T02:44:36.904Z,82.28
2022-12-28T02:47:04.013Z,79.14
2022-12-28T02:49:30.759Z,78.15
2022-12-28T02:52:07.938Z,77.33
2022-12-28T02:54:59.597Z,77.17
2022-12-28T02:57:50.006Z,78.59
2022-12-28T03:00:18.560Z,77.56
2022-12-28T03:02:49.690Z,79.15
2022-12-28T03:05:34.281Z,79.17
2022-12-28T03:08:02.504Z,76.19
2022-12-28T03:10:44.817Z,74.71
2022-12-28T03:13:41.493Z,75.78
2022-12-28T03:16:13.078Z,74.58
2022-12-28T03:18:40.948Z,72.78
2022-12-28T03:21:09.274Z,71.83
2022-12-28T03:23:36.016Z,71.38
2022-12-28T03:26:03.358Z,70.81
2022-12-28T03:28:30.897Z,69.83
2022-12-28T03:30:59.662Z,70.69
2022-12-28T03:33:27.169Z,74.63
2022-12-28T03:35:58.672Z,73.90
2022-12-28T03:38:29.494Z,76.21
2022-12-28T03:41:06.418Z,74.91
2022-12-28T03:43:41.520Z,74.56
2022-12-28T03:46:18.873Z,72.02
2022-12-28T03:48:45.611Z,71.26
2022-12-28T03:51:15.689Z,72.21
2022-12-28T03:53:43.807Z,74.06
2022-12-28T03:56:21.483Z,72.17
2022-12-28T03:58:49.372Z,71.77
2022-12-28T04:01:16.311Z,74.84
2022-12-28T04:03:43.366Z,74.52
2022-12-28T04:06:14.217Z,75.32
2022-12-28T04:08:40.948Z,72.83
2022-12-28T04:11:09.565Z,72.12
2022-12-28T04:13:36.288Z,72.00
2022-12-28T04:16:06.133Z,71.11
2022-12-28T04:18:34.987Z,72.43
2022-12-28T04:21:02.825Z,72.95
2022-12-28T04:23:30.683Z,74.72
2022-12-28T04:26:07.792Z,75.40
2022-12-28T04:28:34.897Z,74.24
2022-12-28T04:31:02.054Z,73.30
2022-12-28T04:33:31.981Z,72.40
2022-12-28T04:36:09.471Z,73.11
2022-12-28T04:38:36.242Z,72.68
2022-12-28T04:41:04.081Z,72.50
2022-12-28T04:43:31.258Z,73.13
2022-12-28T04:45:58.788Z,77.90
2022-12-28T04:48:26.703Z,73.54
2022-12-28T04:50:55.254Z,77.89
2022-12-28T04:53:23.372Z,74.72
2022-12-28T04:55:51.191Z,79.05
2022-12-28T04:58:17.937Z,77.36
2022-12-28T05:00:44.988Z,77.78
2022-12-28T05:03:11.921Z,77.66
2022-12-28T05:05:40.451Z,76.62
2022-12-28T05:08:10.144Z,76.96
2022-12-28T05:10:37.112Z,76.11
2022-12-28T05:13:04.259Z,75.77
2022-12-28T05:15:30.976Z,75.20
2022-12-28T05:17:57.752Z,76.90
2022-12-28T05:20:24.985Z,73.90
2022-12-28T05:23:07.052Z,72.87
2022-12-28T05:25:34.157Z,72.49
2022-12-28T05:28:00.927Z,71.09
2022-12-28T05:30:29.184Z,69.30
2022-12-28T05:32:56.909Z,69.41
2022-12-28T05:35:26.585Z,71.51
2022-12-28T05:38:22.229Z,73.62
2022-12-28T05:40:49.066Z,70.63
2022-12-28T05:43:15.769Z,70.46
2022-12-28T05:45:42.477Z,70.82
2022-12-28T05:48:09.261Z,72.96
2022-12-28T05:50:36.269Z,72.03
2022-12-28T05:53:02.974Z,72.75
2022-12-28T05:55:29.903Z,72.31
2022-12-28T05:57:56.624Z,72.61
2022-12-28T06:00:26.278Z,70.90
2022-12-28T06:02:53.051Z,73.27
2022-12-28T06:05:19.783Z,72.66
2022-12-28T06:07:46.533Z,71.27
2022-12-28T06:10:13.266Z,74.75
2022-12-28T06:12:40.356Z,77.56
2022-12-28T06:15:07.871Z,76.36
2022-12-28T06:17:34.639Z,73.42
2022-12-28T06:20:01.397Z,72.16
2022-12-28T06:22:28.158Z,73.95
2022-12-28T06:24:54.893Z,77.34
2022-12-28T06:27:21.658Z,77.48
2022-12-28T06:29:48.458Z,76.47
2022-12-28T06:32:23.626Z,74.47
2022-12-28T06:34:50.378Z,74.83
2022-12-28T06:37:17.106Z,75.78
2022-12-28T06:39:44.081Z,75.83
2022-12-28T06:42:10.813Z,75.68
2022-12-28T06:44:44.150Z,75.12
2022-12-28T06:47:35.991Z,74.76
2022-12-28T06:50:03.700Z,73.88
2022-12-28T06:52:30.539Z,73.00
2022-12-28T06:54:57.340Z,72.63
2022-12-28T06:57:24.065Z,72.17
2022-12-28T06:59:50.857Z,71.59
2022-12-28T07:02:18.120Z,69.99
2022-12-28T07:04:46.227Z,70.89
2022-12-28T07:07:14.406Z,71.96
2022-12-28T07:09:41.613Z,72.50
2022-12-28T07:12:11.242Z,73.54
2022-12-28T07:14:38.243Z,70.81
2022-12-28T07:17:08.058Z,69.62
2022-12-28T07:19:35.319Z,71.98
2022-12-28T07:22:02.137Z,73.47
2022-12-28T07:24:29.073Z,70.81
2022-12-28T07:27:24.546Z,71.40
2022-12-28T07:29:51.814Z,70.62
2022-12-28T07:32:18.881Z,70.16
2022-12-28T07:34:46.088Z,70.50
2022-12-28T07:37:13.154Z,71.41
2022-12-28T07:39:39.898Z,71.43
2022-12-28T07:42:06.662Z,72.49
2022-12-28T07:44:38.051Z,73.06
2022-12-28T07:47:06.187Z,74.76
2022-12-28T07:49:34.051Z,73.34
2022-12-28T07:52:00.825Z,76.31
2022-12-28T07:54:27.782Z,74.13
2022-12-28T07:56:54.662Z,74.76
2022-12-28T07:59:27.436Z,75.79
2022-12-28T08:01:59.176Z,74.71
2022-12-28T08:04:26.327Z,74.09
2022-12-28T08:06:53.487Z,75.53
2022-12-28T08:09:21.291Z,74.86
2022-12-28T08:11:48.828Z,74.59
2022-12-28T08:14:15.882Z,75.43
2022-12-28T08:16:43.422Z,77.54
2022-12-28T08:19:10.210Z,75.93
2022-12-28T08:21:41.917Z,72.89
2022-12-28T08:24:08.794Z,74.72
2022-12-28T08:26:38.136Z,74.02
2022-12-28T08:29:09.551Z,73.37
2022-12-28T08:31:38.903Z,73.13
2022-12-28T08:34:07.672Z,71.57
2022-12-28T08:36:37.185Z,75.56
2022-12-28T08:39:04.083Z,75.80
2022-12-28T08:41:39.252Z,74.92
2022-12-28T08:44:06.108Z,72.94
2022-12-28T08:46:35.404Z,72.46
2022-12-28T08:49:02.449Z,72.15
2022-12-28T08:51:40.110Z,71.88
2022-12-28T08:54:09.593Z,70.64
2022-12-28T08:56:38.015Z,71.71
2022-12-28T08:59:04.825Z,74.79
2022-12-28T09:01:42.678Z,76.17
2022-12-28T09:04:19.247Z,75.98
2022-12-28T09:06:47.217Z,75.11
2022-12-28T09:09:15.229Z,73.36
2022-12-28T09:11:42.387Z,72.82
2022-12-28T09:14:10.837Z,71.10
2022-12-28T09:16:39.655Z,69.45
2022-12-28T09:19:08.693Z,71.37
2022-12-28T09:21:36.613Z,69.91
2022-12-28T09:24:03.565Z,69.06
2022-12-28T09:26:37.544Z,68.27
2022-12-28T09:29:06.480Z,67.14
2022-12-28T09:31:33.466Z,68.98
2022-12-28T09:36:47.280Z,66.67
2022-12-28T09:39:15.683Z,66.68
2022-12-28T09:41:51.175Z,68.18
2022-12-28T09:44:54.385Z,69.06
2022-12-28T09:47:44.316Z,67.54
2022-12-28T09:50:30.356Z,69.86
2022-12-28T09:53:30.675Z,70.25
2022-12-28T09:56:23.098Z,70.66
2022-12-28T09:58:50.272Z,69.50
2022-12-28T10:01:17.272Z,70.28
2022-12-28T10:03:47.280Z,70.30
2022-12-28T10:06:18.474Z,70.78
2022-12-28T10:09:15.030Z,70.50
2022-12-28T10:12:02.227Z,71.00
2022-12-28T10:14:29.765Z,71.33
2022-12-28T10:16:56.595Z,69.55
2022-12-28T10:19:25.162Z,69.02
2022-12-28T10:22:15.905Z,69.77
2022-12-28T10:24:45.189Z,69.22
2022-12-28T10:27:21.624Z,66.86
2022-12-28T10:29:50.342Z,66.66
2022-12-28T10:32:18.469Z,67.21
2022-12-28T10:34:59.061Z,68.67
2022-12-28T10:37:27.422Z,68.34
2022-12-28T10:39:58.875Z,68.57
2022-12-28T10:42:41.278Z,69.08
2022-12-28T10:45:34.453Z,68.89
2022-12-28T10:48:01.611Z,68.61
2022-12-28T10:50:51.230Z,67.84
2022-12-28T10:53:29.337Z,65.82
2022-12-28T10:56:01.782Z,67.76
2022-12-28T10:58:31.679Z,65.66
2022-12-28T11:01:18.175Z,63.65
2022-12-28T11:03:46.742Z,64.07
2022-12-28T11:06:13.367Z,62.20
2022-12-28T11:08:41.858Z,65.11
2022-12-28T11:11:17.652Z,62.48
2022-12-28T11:13:45.998Z,62.63
2022-12-28T11:16:13.081Z,60.58
2022-12-28T11:18:40.213Z,62.24
2022-12-28T11:21:18.394Z,63.82
2022-12-28T11:23:50.693Z,61.21
2022-12-28T11:26:18.070Z,60.77
2022-12-28T11:28:45.098Z,62.33
2022-12-28T11:31:21.579Z,61.44
2022-12-28T11:33:49.881Z,59.71
2022-12-28T11:36:21.356Z,59.20
2022-12-28T11:38:50.706Z,59.37
2022-12-28T11:41:30.174Z,58.33
2022-12-28T11:44:05.362Z,60.24
2022-12-28T11:46:35.345Z,59.05
2022-12-28T11:49:22.510Z,60.60
2022-12-28T11:51:51.172Z,59.65
2022-12-28T11:54:37.588Z,59.40
2022-12-28T11:57:05.692Z,58.49
2022-12-28T11:59:33.610Z,57.94
2022-12-28T12:02:04.387Z,58.05
2022-12-28T12:04:43.470Z,58.18
2022-12-28T12:07:16.199Z,55.81
2022-12-28T12:09:45.249Z,56.69
2022-12-28T12:12:18.036Z,56.87
2022-12-28T12:14:49.334Z,55.34
2022-12-28T12:21:11.642Z,55.16
2022-12-28T12:27:38.773Z,54.82
2022-12-28T12:30:50.000Z,53.17
2022-12-28T12:33:23.711Z,51.97
2022-12-28T12:36:19.953Z,51.55
2022-12-28T12:38:53.425Z,53.19
2022-12-28T12:41:35.136Z,51.19
2022-12-28T12:44:19.624Z,52.20
2022-12-28T12:50:30.350Z,53.70
2022-12-28T12:53:09.923Z,52.19
2022-12-28T12:55:43.614Z,53.15
2022-12-28T12:58:33.269Z,52.10
2022-12-28T13:01:26.134Z,51.28
2022-12-28T13:03:54.063Z,51.29
2022-12-28T13:06:22.586Z,49.95
2022-12-28T13:09:03.273Z,50.21
2022-12-28T13:11:31.952Z,51.29
2022-12-28T13:13:58.746Z,51.11
2022-12-28T13:16:26.240Z,50.92
2022-12-28T13:19:05.131Z,49.48
2022-12-28T13:22:19.625Z,51.79
2022-12-28T13:24:46.708Z,51.89
2022-12-28T13:27:19.666Z,50.86
2022-12-28T13:29:54.001Z,51.18
2022-12-28T13:32:37.574Z,51.22
2022-12-28T13:35:19.439Z,50.50
2022-12-28T13:38:12.484Z,52.85
2022-12-28T13:40:39.521Z,53.55
2022-12-28T13:43:18.729Z,53.69
2022-12-28T13:45:49.358Z,54.50
2022-12-28T13:48:18.746Z,53.93
2022-12-28T13:50:46.592Z,52.47
2022-12-28T13:53:15.807Z,50.95
2022-12-28T13:55:46.972Z,53.51
2022-12-28T13:58:38.293Z,52.78
2022-12-28T14:01:07.595Z,51.84
2022-12-28T14:03:40.617Z,52.35
2022-12-28T14:06:09.983Z,52.65
2022-12-28T14:08:38.038Z,53.76
2022-12-28T14:11:05.215Z,51.83
2022-12-28T14:13:32.562Z,51.98
2022-12-28T14:16:00.041Z,51.39
2022-12-28T14:18:27.400Z,50.96
2022-12-28T14:20:55.271Z,51.71
2022-12-28T14:23:45.285Z,51.74
2022-12-28T14:26:45.030Z,53.09
2022-12-28T14:29:15.887Z,51.16
2022-12-28T14:31:42.625Z,52.81
2022-12-28T14:34:21.378Z,53.23
2022-12-28T14:36:49.501Z,53.90
2022-12-28T14:39:25.346Z,54.82
2022-12-28T14:41:52.096Z,55.93
2022-12-28T14:44:39.425Z,56.25
2022-12-28T14:47:44.402Z,54.13
2022-12-28T14:50:21.357Z,54.65
2022-12-28T14:52:50.413Z,55.17
2022-12-28T14:55:29.239Z,53.25
2022-12-28T14:57:59.049Z,53.79
2022-12-28T15:00:33.923Z,54.31
2022-12-28T15:03:18.111Z,53.99
2022-12-28T15:05:47.416Z,53.82
2022-12-28T15:08:14.149Z,53.82
2022-12-28T15:13:53.531Z,52.81
2022-12-28T15:16:21.540Z,55.61
2022-12-28T15:18:49.916Z,57.70
2022-12-28T15:21:23.139Z,55.65
2022-12-28T15:23:50.660Z,55.30
2022-12-28T15:26:27.524Z,55.33
2022-12-28T15:28:54.483Z,55.75
2022-12-28T15:31:21.629Z,55.07
2022-12-28T15:33:48.648Z,53.01
2022-12-28T15:36:20.128Z,54.14
2022-12-28T15:38:47.408Z,54.56
2022-12-28T15:41:19.682Z,53.38
2022-12-28T15:43:50.028Z,52.18
2022-12-28T15:46:17.503Z,56.56
2022-12-28T15:48:47.695Z,56.08
2022-12-28T15:51:15.583Z,57.02
2022-12-28T15:53:42.345Z,56.26
2022-12-28T15:56:32.317Z,55.00
2022-12-28T15:59:01.181Z,56.23
2022-12-28T16:01:28.814Z,53.43
2022-12-28T16:03:57.052Z,53.29
2022-12-28T16:06:25.098Z,55.11
2022-12-28T16:08:55.863Z,54.41
2022-12-28T16:11:22.646Z,55.19
2022-12-28T16:14:00.553Z,57.64
2022-12-28T16:16:30.127Z,56.25
2022-12-28T16:18:57.797Z,58.09
2022-12-28T16:21:31.590Z,56.15
2022-12-28T16:23:59.244Z,55.91
2022-12-28T16:26:26.592Z,57.34
2022-12-28T16:28:53.407Z,58.16
2022-12-28T16:31:27.658Z,57.71
2022-12-28T16:34:02.167Z,56.31
2022-12-28T16:36:29.178Z,55.23
2022-12-28T16:38:56.403Z,56.47
2022-12-28T16:41:33.042Z,57.37
2022-12-28T16:44:21.567Z,56.57
2022-12-28T16:46:49.259Z,57.55
2022-12-28T16:49:16.113Z,56.88
2022-12-28T16:51:45.036Z,57.44
2022-12-28T16:54:19.937Z,58.39
2022-12-28T16:56:46.998Z,57.24
2022-12-28T16:59:15.379Z,58.01
2022-12-28T17:01:42.283Z,55.92
2022-12-28T17:04:09.919Z,59.91
2022-12-28T17:06:39.898Z,56.81
2022-12-28T17:09:07.205Z,56.62
2022-12-28T17:11:34.052Z,58.81
2022-12-28T17:14:04.833Z,58.33
2022-12-28T17:16:38.064Z,59.69
2022-12-28T17:19:04.864Z,59.71
2022-12-28T17:21:31.964Z,58.81
2022-12-28T17:24:00.831Z,58.15
2022-12-28T17:26:29.064Z,58.44
2022-12-28T17:28:56.178Z,59.36
2022-12-28T17:31:23.720Z,58.74
2022-12-28T17:33:55.227Z,57.98
2022-12-28T17:36:22.203Z,56.89
2022-12-28T17:38:48.907Z,57.50
2022-12-28T17:41:17.528Z,56.72
2022-12-28T17:43:53.191Z,57.92
2022-12-28T17:46:20.563Z,55.74
2022-12-28T17:48:48.890Z,56.41
2022-12-28T17:51:16.311Z,57.98
2022-12-28T17:53:48.288Z,57.81
2022-12-28T17:56:15.286Z,56.41
2022-12-28T17:58:45.344Z,56.19
2022-12-28T18:01:12.441Z,58.64
2022-12-28T18:03:39.925Z,57.72
2022-12-28T18:06:06.782Z,57.03
2022-12-28T18:08:33.640Z,58.03
2022-12-28T18:11:00.710Z,58.64
2022-12-28T18:13:27.449Z,57.89
2022-12-28T18:15:54.489Z,57.75
2022-12-28T18:18:21.419Z,58.23
2022-12-28T18:21:02.510Z,56.25
2022-12-28T18:23:29.437Z,57.30
2022-12-28T18:26:07.105Z,56.73
2022-12-28T18:28:35.192Z,56.10
2022-12-28T18:31:02.769Z,57.88
2022-12-28T18:33:30.230Z,57.79
2022-12-28T18:36:00.645Z,56.27
2022-12-28T18:38:27.832Z,54.32
2022-12-28T18:40:55.804Z,57.44
2022-12-28T18:43:25.408Z,55.39
2022-12-28T18:45:53.703Z,58.49
2022-12-28T18:48:20.380Z,58.63
2022-12-28T18:50:54.026Z,57.53
2022-12-28T18:53:21.473Z,56.60
2022-12-28T18:56:17.116Z,58.29
2022-12-28T18:58:44.695Z,57.61
2022-12-28T19:01:55.828Z,55.58
2022-12-28T19:04:08.575Z,55.83
2022-12-28T19:06:35.949Z,53.48
2022-12-28T19:09:11.947Z,56.09
2022-12-28T19:11:39.086Z,57.75
2022-12-28T19:14:07.797Z,57.88
2022-12-28T19:16:46.448Z,58.96
2022-12-28T19:19:14.083Z,61.93
2022-12-28T19:21:42.620Z,61.57
2022-12-28T19:24:17.491Z,62.62
2022-12-28T19:26:44.524Z,63.91
2022-12-28T19:29:12.524Z,61.05
2022-12-28T19:31:43.451Z,63.46
2022-12-28T19:34:10.284Z,62.99
2022-12-28T19:36:37.277Z,62.36
2022-12-28T19:39:04.392Z,62.81
2022-12-28T19:41:31.273Z,61.89
2022-12-28T19:43:58.002Z,59.49
2022-12-28T19:46:25.697Z,59.17
2022-12-28T19:48:52.734Z,57.53
2022-12-28T19:51:27.093Z,57.60
2022-12-28T19:53:59.460Z,57.69
2022-12-28T19:56:26.921Z,56.36
2022-12-28T19:58:57.858Z,59.62
2022-12-28T20:01:26.488Z,58.37
2022-12-28T20:03:53.492Z,61.75
2022-12-28T20:06:24.610Z,60.47
2022-12-28T20:08:54.214Z,59.54
2022-12-28T20:11:21.958Z,61.27
2022-12-28T20:13:59.558Z,62.22
2022-12-28T20:16:27.460Z,63.29
2022-12-28T20:18:54.351Z,64.36
2022-12-28T20:21:22.130Z,62.58
2022-12-28T20:23:49.903Z,63.42
2022-12-28T20:26:18.360Z,62.55
2022-12-28T20:28:45.169Z,61.32
2022-12-28T20:31:15.105Z,62.09
2022-12-28T20:33:42.745Z,60.90
2022-12-28T20:36:34.976Z,61.28
2022-12-28T20:39:01.801Z,60.40
2022-12-28T20:41:30.611Z,59.52
2022-12-28T20:43:58.533Z,59.42
2022-12-28T20:46:28.208Z,60.00
2022-12-28T20:48:55.312Z,61.65
2022-12-28T20:51:23.118Z,60.37
2022-12-28T20:53:50.281Z,59.92
2022-12-28T20:56:18.044Z,59.58
2022-12-28T20:58:45.425Z,60.58
2022-12-28T21:01:13.330Z,59.49
2022-12-28T21:03:40.148Z,58.70
2022-12-28T21:06:09.810Z,60.02
2022-12-28T21:08:36.931Z,59.83
2022-12-28T21:11:03.788Z,61.45
2022-12-28T21:13:32.025Z,61.19
2022-12-28T21:16:02.947Z,60.57
2022-12-28T21:18:29.702Z,60.46
2022-12-28T21:20:56.784Z,59.94
2022-12-28T21:23:23.528Z,59.98
2022-12-28T21:25:50.950Z,60.26
2022-12-28T21:28:19.400Z,60.06
2022-12-28T21:30:54.149Z,61.68
2022-12-28T21:33:22.110Z,61.63
2022-12-28T21:36:17.322Z,61.82
2022-12-28T21:38:44.653Z,62.08
2022-12-28T21:41:13.289Z,61.91
2022-12-28T21:43:40.127Z,62.27
2022-12-28T21:46:11.246Z,61.71
2022-12-28T21:48:38.213Z,60.73
2022-12-28T21:51:15.188Z,61.10
2022-12-28T21:53:43.224Z,62.72
2022-12-28T21:56:13.855Z,62.78
2022-12-28T21:58:40.980Z,61.63
2022-12-28T22:01:08.649Z,62.70
2022-12-28T22:03:35.712Z,64.01
2022-12-28T22:06:02.905Z,64.77
2022-12-28T22:08:32.933Z,65.45
2022-12-28T22:11:01.869Z,65.25
2022-12-28T22:13:29.129Z,64.78
2022-12-28T22:15:58.278Z,65.97
2022-12-28T22:18:44.898Z,66.12
2022-12-28T22:21:12.451Z,66.29
2022-12-28T22:23:39.234Z,67.32
2022-12-28T22:26:06.701Z,67.06
2022-12-28T22:28:33.534Z,68.26
2022-12-28T22:31:04.713Z,68.59
2022-12-28T22:33:31.957Z,68.92
2022-12-28T22:36:07.918Z,68.03
2022-12-28T22:38:36.019Z,66.57
2022-12-28T22:41:03.058Z,66.05
2022-12-28T22:43:31.281Z,66.14
2022-12-28T22:46:05.518Z,65.47
2022-12-28T22:48:32.808Z,65.42
2022-12-28T22:51:10.256Z,65.16
2022-12-28T22:53:37.162Z,64.38
2022-12-28T22:56:05.585Z,65.54
2022-12-28T22:58:32.335Z,65.67
2022-12-28T23:01:12.330Z,65.18
2022-12-28T23:03:40.206Z,65.55
2022-12-28T23:06:12.279Z,65.06
2022-12-28T23:08:39.049Z,66.29
2022-12-28T23:11:08.660Z,66.06
2022-12-28T23:13:36.038Z,65.98
2022-12-28T23:16:04.145Z,66.00
2022-12-28T23:18:31.596Z,65.45
2022-12-28T23:20:58.826Z,65.45
2022-12-28T23:23:25.937Z,66.16
2022-12-28T23:25:53.393Z,67.47
2022-12-28T23:28:20.479Z,67.52
2022-12-28T23:30:50.524Z,67.52
2022-12-28T23:33:18.660Z,67.68
2022-12-28T23:35:45.554Z,68.97
2022-12-28T23:38:12.470Z,69.88
2022-12-28T23:40:39.645Z,70.21
2022-12-28T23:43:07.651Z,70.29
2022-12-28T23:45:34.854Z,70.12
2022-12-28T23:48:01.566Z,70.66
2022-12-28T23:50:29.712Z,70.59
2022-12-28T23:52:56.757Z,70.80
2022-12-28T23:55:23.584Z,70.69
2022-12-28T23:57:50.808Z,71.13
